createdAt,value
2023-06-29T00:02:01.717Z,6.50
2023-06-29T00:07:05.989Z,5.05
2023-06-29T00:12:11.417Z,5.38
2023-06-29T00:17:18.246Z,7.32
2023-06-29T00:22:27.361Z,7.78
2023-06-29T00:28:00.882Z,8.25
2023-06-29T00:33:10.108Z,9.18
2023-06-29T00:38:13.844Z,8.50
2023-06-29T00:43:21.461Z,7.43
2023-06-29T00:48:29.307Z,7.87
2023-06-29T00:53:34.364Z,8.85
2023-06-29T00:58:58.796Z,7.25
2023-06-29T01:04:08.071Z,9.23
2023-06-29T01:09:17.198Z,7.82
2023-06-29T01:14:22.691Z,9.07
2023-06-29T01:19:30.045Z,8.88
2023-06-29T01:24:41.864Z,9.65
2023-06-29T01:29:46.329Z,8.68
2023-06-29T01:34:49.669Z,9.35
2023-06-29T01:39:55.503Z,8.45
2023-06-29T01:44:59.163Z,6.97
2023-06-29T01:50:04.544Z,8.77
2023-06-29T01:55:11.200Z,8.32
2023-06-29T02:00:16.592Z,11.43
2023-06-29T02:05:22.049Z,7.97
2023-06-29T02:10:27.305Z,8.50
2023-06-29T02:15:31.180Z,7.95
2023-06-29T02:20:42.202Z,9.98
2023-06-29T02:25:47.613Z,6.82
2023-06-29T02:30:54.333Z,8.82
2023-06-29T02:35:58.490Z,8.73
2023-06-29T02:41:06.355Z,8.02
2023-06-29T02:46:10.311Z,8.27
2023-06-29T02:51:15.833Z,8.25
2023-06-29T02:56:35.699Z,7.07
2023-06-29T03:01:41.942Z,10.45
2023-06-29T03:06:45.254Z,9.15
2023-06-29T03:11:51.030Z,9.93
2023-06-29T03:16:56.248Z,8.45
2023-06-29T03:22:01.037Z,9.90
2023-06-29T03:27:07.962Z,8.27
2023-06-29T03:32:11.771Z,6.88
2023-06-29T03:37:27.804Z,9.20
2023-06-29T03:42:44.095Z,11.75
2023-06-29T03:47:48.144Z,9.40
2023-06-29T03:52:53.710Z,11.93
2023-06-29T03:57:59.471Z,10.25
2023-06-29T04:03:24.362Z,8.88
2023-06-29T04:08:58.282Z,8.23
2023-06-29T04:14:11.938Z,8.25
2023-06-29T04:19:17.263Z,7.25
2023-06-29T04:24:22.349Z,9.00
2023-06-29T04:29:27.245Z,9.23
2023-06-29T04:34:30.382Z,8.50
2023-06-29T04:39:33.828Z,11.00
2023-06-29T04:44:38.755Z,11.38
2023-06-29T04:49:46.014Z,7.47
2023-06-29T04:55:12.463Z,7.18
2023-06-29T05:00:28.945Z,6.45
2023-06-29T05:05:37.615Z,8.07
2023-06-29T05:10:49.594Z,8.85
2023-06-29T05:16:00.436Z,7.68
2023-06-29T05:21:06.553Z,9.38
2023-06-29T05:26:11.292Z,8.57
2023-06-29T05:31:54.463Z,7.63
2023-06-29T05:37:14.842Z,7.40
2023-06-29T05:42:24.499Z,7.72
2023-06-29T05:48:05.272Z,8.65
2023-06-29T05:53:14.389Z,8.70
2023-06-29T05:58:31.820Z,9.13
2023-06-29T06:04:04.492Z,9.57
2023-06-29T06:09:18.525Z,8.60
2023-06-29T06:14:28.852Z,7.07
2023-06-29T06:19:47.014Z,8.45
2023-06-29T06:24:52.485Z,5.07
2023-06-29T06:29:58.766Z,7.47
2023-06-29T06:35:07.794Z,7.28
2023-06-29T06:40:44.285Z,8.15
2023-06-29T06:46:00.907Z,9.05
2023-06-29T06:51:07.964Z,10.38
2023-06-29T06:56:21.850Z,10.23
2023-06-29T07:01:28.398Z,8.52
2023-06-29T07:06:35.256Z,12.00
2023-06-29T07:11:45.518Z,8.18
2023-06-29T07:16:59.008Z,11.15
2023-06-29T07:27:29.731Z,14.32
2023-06-29T07:32:37.532Z,6.28
2023-06-29T07:37:43.278Z,11.18
2023-06-29T07:42:53.609Z,8.40
2023-06-29T07:48:00.096Z,7.20
2023-06-29T07:53:06.278Z,8.35
2023-06-29T08:03:24.337Z,9.13
2023-06-29T08:08:32.065Z,7.57
2023-06-29T08:13:35.563Z,5.32
2023-06-29T08:18:42.021Z,5.13
2023-06-29T08:23:52.385Z,5.15
2023-06-29T08:28:56.293Z,6.70
2023-06-29T08:34:03.449Z,8.82
2023-06-29T08:39:12.165Z,6.75
2023-06-29T08:49:24.563Z,5.03
2023-06-29T08:54:36.452Z,9.25
2023-06-29T08:59:55.709Z,9.73
2023-06-29T09:05:15.060Z,7.53
2023-06-29T09:10:26.553Z,5.38
2023-06-29T09:15:31.621Z,5.95
2023-06-29T09:20:46.590Z,8.65
2023-06-29T09:25:59.111Z,6.78
2023-06-29T09:31:08.238Z,6.80
2023-06-29T09:36:13.460Z,9.10
2023-06-29T09:41:20.241Z,9.35
2023-06-29T09:52:13.672Z,8.23
2023-06-29T09:57:19.645Z,4.82
2023-06-29T10:02:23.672Z,11.07
2023-06-29T10:07:29.574Z,7.05
2023-06-29T10:12:35.049Z,9.05
2023-06-29T10:17:46.787Z,5.63
2023-06-29T10:22:50.304Z,5.28
2023-06-29T10:27:56.184Z,6.88
2023-06-29T10:33:00.702Z,8.25
2023-06-29T10:38:08.648Z,4.75
2023-06-29T10:43:13.374Z,8.88
2023-06-29T10:48:43.017Z,4.45
2023-06-29T10:53:46.424Z,5.68
2023-06-29T10:58:51.428Z,8.23
2023-06-29T11:03:55.257Z,8.02
2023-06-29T11:08:58.911Z,5.88
2023-06-29T11:14:06.191Z,6.85
2023-06-29T11:19:12.948Z,6.65
2023-06-29T11:24:17.260Z,8.98
2023-06-29T11:29:25.549Z,8.25
2023-06-29T11:34:31.220Z,3.20
2023-06-29T11:39:34.436Z,7.75
2023-06-29T11:44:38.936Z,5.18
2023-06-29T11:49:42.698Z,6.80
2023-06-29T11:54:46.080Z,6.80
2023-06-29T11:59:50.974Z,5.97
2023-06-29T12:05:03.259Z,5.10
2023-06-29T12:10:09.069Z,6.07
2023-06-29T12:15:17.835Z,5.72
2023-06-29T12:20:22.591Z,5.20
2023-06-29T12:25:26.071Z,11.43
2023-06-29T12:30:31.095Z,4.50
2023-06-29T12:35:34.805Z,8.02
2023-06-29T12:40:39.128Z,5.68
2023-06-29T12:45:45.166Z,6.07
2023-06-29T12:50:49.266Z,5.35
2023-06-29T12:55:53.278Z,3.83
2023-06-29T13:00:58.625Z,5.47
2023-06-29T13:06:02.775Z,6.47
2023-06-29T13:11:08.421Z,7.40
2023-06-29T13:16:13.704Z,4.35
2023-06-29T13:21:17.381Z,7.15
2023-06-29T13:26:20.661Z,5.03
2023-06-29T13:31:28.110Z,3.97
2023-06-29T13:36:33.269Z,4.80
2023-06-29T13:41:38.254Z,6.10
2023-06-29T13:46:47.001Z,5.10
2023-06-29T13:51:51.310Z,7.00
2023-06-29T13:56:55.327Z,5.53
2023-06-29T14:02:00.457Z,6.20
2023-06-29T14:07:03.956Z,5.18
2023-06-29T14:12:08.688Z,7.13
2023-06-29T14:17:16.148Z,9.02
2023-06-29T14:22:19.256Z,8.90
2023-06-29T14:27:22.515Z,7.55
2023-06-29T14:32:28.612Z,8.88
2023-06-29T14:37:32.565Z,7.75
2023-06-29T14:42:35.644Z,7.35
2023-06-29T14:47:40.968Z,6.15
2023-06-29T14:52:48.127Z,6.10
2023-06-29T14:57:51.835Z,7.75
2023-06-29T15:02:57.068Z,6.90
2023-06-29T15:08:01.085Z,9.52
2023-06-29T15:13:05.532Z,8.63
2023-06-29T15:18:10.349Z,8.43
2023-06-29T15:23:13.864Z,11.63
2023-06-29T15:28:17.639Z,9.57
2023-06-29T15:33:25.075Z,8.35
2023-06-29T15:38:30.049Z,9.82
2023-06-29T15:43:34.414Z,11.05
2023-06-29T15:48:47.311Z,7.85
2023-06-29T15:53:52.860Z,9.55
2023-06-29T15:58:57.010Z,8.43
2023-06-29T16:04:01.465Z,9.35
2023-06-29T16:09:05.051Z,9.88
2023-06-29T16:14:08.597Z,10.65
2023-06-29T16:19:15.930Z,9.15
2023-06-29T16:24:20.039Z,9.68
2023-06-29T16:29:25.052Z,10.30
2023-06-29T16:34:29.709Z,8.98
2023-06-29T16:39:32.912Z,11.57
2023-06-29T16:44:36.291Z,9.35
2023-06-29T16:49:42.429Z,11.57
2023-06-29T16:54:46.289Z,9.88
2023-06-29T16:59:49.845Z,11.32
2023-06-29T17:04:55.034Z,11.38
2023-06-29T17:09:58.551Z,9.88
2023-06-29T17:15:01.736Z,9.77
2023-06-29T17:20:08.288Z,8.90
2023-06-29T17:25:11.660Z,7.93
2023-06-29T17:30:15.913Z,8.70
2023-06-29T17:35:20.608Z,8.18
2023-06-29T17:40:23.671Z,9.15
2023-06-29T17:45:28.089Z,8.50
2023-06-29T17:50:32.531Z,9.55
2023-06-29T17:55:36.365Z,7.25
2023-06-29T18:00:39.588Z,11.02
2023-06-29T18:05:45.028Z,11.90
2023-06-29T18:10:48.381Z,13.15
2023-06-29T18:15:51.686Z,10.13
2023-06-29T18:20:56.308Z,11.93
2023-06-29T18:26:00.307Z,11.93
2023-06-29T18:31:03.622Z,11.70
2023-06-29T18:36:08.901Z,13.45
2023-06-29T18:41:30.938Z,10.80
2023-06-29T18:46:41.829Z,12.27
2023-06-29T18:51:46.870Z,15.05
2023-06-29T18:56:50.043Z,13.07
2023-06-29T19:01:53.344Z,12.23
2023-06-29T19:06:58.464Z,14.65
2023-06-29T19:12:02.320Z,15.25
2023-06-29T19:17:06.059Z,16.48
2023-06-29T19:22:11.240Z,16.02
2023-06-29T19:27:14.538Z,18.08
2023-06-29T19:32:17.592Z,19.10
2023-06-29T19:37:26.582Z,14.52
2023-06-29T19:42:30.339Z,16.48
2023-06-29T19:47:34.100Z,15.68
2023-06-29T19:52:38.926Z,15.98
2023-06-29T19:57:42.435Z,15.18
2023-06-29T20:02:46.502Z,20.25
2023-06-29T20:07:51.947Z,16.27
2023-06-29T20:12:55.608Z,19.80
2023-06-29T20:17:59.340Z,16.30
2023-06-29T20:23:04.214Z,19.60
2023-06-29T20:28:07.331Z,20.02
2023-06-29T20:33:10.862Z,21.70
2023-06-29T20:38:15.426Z,24.73
2023-06-29T20:43:18.763Z,23.42
2023-06-29T20:48:21.916Z,25.73
2023-06-29T20:53:26.456Z,25.83
2023-06-29T20:58:29.806Z,27.42
2023-06-29T21:03:34.528Z,26.60
2023-06-29T21:08:39.366Z,21.17
2023-06-29T21:13:43.709Z,25.60
2023-06-29T21:18:48.020Z,26.65
2023-06-29T21:24:24.556Z,24.35
2023-06-29T21:29:42.271Z,26.63
2023-06-29T21:34:48.280Z,26.73
2023-06-29T21:39:53.884Z,29.63
2023-06-29T21:44:57.593Z,26.65
2023-06-29T21:50:01.842Z,31.63
2023-06-29T21:55:09.824Z,26.58
2023-06-29T22:00:14.429Z,27.83
2023-06-29T22:05:18.460Z,26.02
2023-06-29T22:10:28.266Z,28.63
2023-06-29T22:15:38.434Z,27.90
2023-06-29T22:20:43.256Z,26.35
2023-06-29T22:25:48.202Z,27.60
2023-06-29T22:30:55.055Z,27.10
2023-06-29T22:36:00.627Z,25.98
2023-06-29T22:41:08.501Z,25.33
2023-06-29T22:46:12.294Z,27.43
2023-06-29T22:51:17.145Z,27.65
2023-06-29T22:56:24.969Z,29.10
2023-06-29T23:01:28.468Z,26.23
2023-06-29T23:06:32.762Z,27.73
2023-06-29T23:11:37.924Z,29.40
2023-06-29T23:16:41.593Z,25.60
2023-06-29T23:21:45.468Z,25.20
2023-06-29T23:26:50.736Z,27.65
2023-06-29T23:31:54.767Z,28.30
2023-06-29T23:36:58.858Z,25.73
2023-06-29T23:42:05.168Z,27.13
2023-06-29T23:47:10.570Z,26.80
2023-06-29T23:52:15.370Z,27.02
2023-06-29T23:57:20.527Z,29.65
